sensor_id;sensor_type;location;lat;lon;timestamp;P1;durP1;ratioP1;P2;durP2;ratioP2
55776;SDS011;54079;44.540;18.784;2024-03-22T00:00:33;5.38;;;3.20;;
55776;SDS011;54079;44.540;18.784;2024-03-22T00:02:58;12.02;;;7.88;;
55776;SDS011;54079;44.540;18.784;2024-03-22T00:05:24;7.50;;;5.20;;
55776;SDS011;54079;44.540;18.784;2024-03-22T00:07:50;7.63;;;5.78;;
55776;SDS011;54079;44.540;18.784;2024-03-22T00:10:16;4.65;;;3.95;;
55776;SDS011;54079;44.540;18.784;2024-03-22T00:12:42;10.48;;;6.35;;
55776;SDS011;54079;44.540;18.784;2024-03-22T00:15:08;5.95;;;4.53;;
55776;SDS011;54079;44.540;18.784;2024-03-22T00:17:34;5.82;;;4.15;;
55776;SDS011;54079;44.540;18.784;2024-03-22T00:20:00;5.53;;;3.75;;
55776;SDS011;54079;44.540;18.784;2024-03-22T00:22:26;7.78;;;6.15;;
55776;SDS011;54079;44.540;18.784;2024-03-22T00:24:52;6.38;;;4.53;;
55776;SDS011;54079;44.540;18.784;2024-03-22T00:27:18;5.00;;;3.22;;
55776;SDS011;54079;44.540;18.784;2024-03-22T00:29:44;7.60;;;5.07;;
55776;SDS011;54079;44.540;18.784;2024-03-22T00:32:10;6.90;;;4.60;;
55776;SDS011;54079;44.540;18.784;2024-03-22T00:34:36;6.43;;;4.68;;
55776;SDS011;54079;44.540;18.784;2024-03-22T00:37:02;6.40;;;5.07;;
55776;SDS011;54079;44.540;18.784;2024-03-22T00:39:28;8.40;;;5.65;;
55776;SDS011;54079;44.540;18.784;2024-03-22T00:41:54;4.95;;;3.10;;
55776;SDS011;54079;44.540;18.784;2024-03-22T00:44:20;7.30;;;5.03;;
55776;SDS011;54079;44.540;18.784;2024-03-22T00:46:46;8.10;;;5.45;;
55776;SDS011;54079;44.540;18.784;2024-03-22T00:49:12;8.77;;;6.03;;
55776;SDS011;54079;44.540;18.784;2024-03-22T00:51:38;7.70;;;5.13;;
55776;SDS011;54079;44.540;18.784;2024-03-22T00:54:04;8.77;;;4.82;;
55776;SDS011;54079;44.540;18.784;2024-03-22T00:56:30;5.85;;;4.50;;
55776;SDS011;54079;44.540;18.784;2024-03-22T00:58:56;4.93;;;3.55;;
55776;SDS011;54079;44.540;18.784;2024-03-22T01:01:22;5.72;;;4.10;;
55776;SDS011;54079;44.540;18.784;2024-03-22T01:03:48;8.43;;;5.68;;
55776;SDS011;54079;44.540;18.784;2024-03-22T01:06:13;4.80;;;3.35;;
55776;SDS011;54079;44.540;18.784;2024-03-22T01:08:39;8.48;;;5.50;;
55776;SDS011;54079;44.540;18.784;2024-03-22T01:11:05;9.02;;;6.35;;
55776;SDS011;54079;44.540;18.784;2024-03-22T01:13:31;8.13;;;5.28;;
55776;SDS011;54079;44.540;18.784;2024-03-22T01:15:57;6.70;;;4.97;;
55776;SDS011;54079;44.540;18.784;2024-03-22T01:18:23;5.00;;;3.88;;
55776;SDS011;54079;44.540;18.784;2024-03-22T01:20:49;6.13;;;4.32;;
55776;SDS011;54079;44.540;18.784;2024-03-22T01:23:15;4.63;;;3.70;;
55776;SDS011;54079;44.540;18.784;2024-03-22T01:25:41;6.75;;;4.90;;
55776;SDS011;54079;44.540;18.784;2024-03-22T01:28:07;6.95;;;4.45;;
55776;SDS011;54079;44.540;18.784;2024-03-22T01:30:33;5.65;;;4.10;;
55776;SDS011;54079;44.540;18.784;2024-03-22T01:33:00;3.72;;;2.88;;
55776;SDS011;54079;44.540;18.784;2024-03-22T01:35:26;3.97;;;3.13;;
55776;SDS011;54079;44.540;18.784;2024-03-22T01:37:52;5.63;;;3.92;;
55776;SDS011;54079;44.540;18.784;2024-03-22T01:40:18;6.15;;;4.57;;
55776;SDS011;54079;44.540;18.784;2024-03-22T01:42:44;5.78;;;4.13;;
55776;SDS011;54079;44.540;18.784;2024-03-22T01:45:11;7.85;;;5.10;;
55776;SDS011;54079;44.540;18.784;2024-03-22T01:47:39;6.10;;;4.38;;
55776;SDS011;54079;44.540;18.784;2024-03-22T01:50:05;7.72;;;5.18;;
55776;SDS011;54079;44.540;18.784;2024-03-22T01:52:32;9.30;;;6.18;;
55776;SDS011;54079;44.540;18.784;2024-03-22T01:54:58;8.30;;;4.95;;
55776;SDS011;54079;44.540;18.784;2024-03-22T01:57:24;7.75;;;5.22;;
55776;SDS011;54079;44.540;18.784;2024-03-22T01:59:51;8.70;;;5.45;;
55776;SDS011;54079;44.540;18.784;2024-03-22T02:02:21;7.18;;;5.15;;
55776;SDS011;54079;44.540;18.784;2024-03-22T02:04:49;8.63;;;6.18;;
55776;SDS011;54079;44.540;18.784;2024-03-22T02:07:16;6.43;;;4.70;;
55776;SDS011;54079;44.540;18.784;2024-03-22T02:09:42;9.52;;;5.68;;
55776;SDS011;54079;44.540;18.784;2024-03-22T02:12:08;7.15;;;5.07;;
55776;SDS011;54079;44.540;18.784;2024-03-22T02:14:34;7.18;;;5.38;;
55776;SDS011;54079;44.540;18.784;2024-03-22T02:17:00;5.65;;;4.50;;
55776;SDS011;54079;44.540;18.784;2024-03-22T02:19:26;6.22;;;4.78;;
55776;SDS011;54079;44.540;18.784;2024-03-22T02:21:52;7.60;;;5.20;;
55776;SDS011;54079;44.540;18.784;2024-03-22T02:24:18;4.38;;;3.40;;
55776;SDS011;54079;44.540;18.784;2024-03-22T02:26:44;7.25;;;4.57;;
55776;SDS011;54079;44.540;18.784;2024-03-22T02:29:10;6.75;;;4.97;;
55776;SDS011;54079;44.540;18.784;2024-03-22T02:31:36;6.55;;;4.75;;
55776;SDS011;54079;44.540;18.784;2024-03-22T02:34:02;5.45;;;3.58;;
55776;SDS011;54079;44.540;18.784;2024-03-22T02:36:28;5.63;;;3.72;;
55776;SDS011;54079;44.540;18.784;2024-03-22T02:38:54;6.85;;;5.13;;
55776;SDS011;54079;44.540;18.784;2024-03-22T02:41:20;5.80;;;4.05;;
55776;SDS011;54079;44.540;18.784;2024-03-22T02:43:47;6.45;;;4.75;;
55776;SDS011;54079;44.540;18.784;2024-03-22T02:46:13;6.13;;;4.38;;
55776;SDS011;54079;44.540;18.784;2024-03-22T02:48:39;6.35;;;4.85;;
55776;SDS011;54079;44.540;18.784;2024-03-22T02:51:05;6.05;;;3.83;;
55776;SDS011;54079;44.540;18.784;2024-03-22T02:53:31;5.40;;;4.18;;
55776;SDS011;54079;44.540;18.784;2024-03-22T02:55:59;5.03;;;3.50;;
55776;SDS011;54079;44.540;18.784;2024-03-22T02:58:26;3.70;;;2.78;;
55776;SDS011;54079;44.540;18.784;2024-03-22T03:00:52;5.80;;;3.90;;
55776;SDS011;54079;44.540;18.784;2024-03-22T03:03:18;5.15;;;3.90;;
55776;SDS011;54079;44.540;18.784;2024-03-22T03:05:43;8.35;;;5.20;;
55776;SDS011;54079;44.540;18.784;2024-03-22T03:08:09;7.53;;;5.35;;
55776;SDS011;54079;44.540;18.784;2024-03-22T03:10:35;7.40;;;5.22;;
55776;SDS011;54079;44.540;18.784;2024-03-22T03:13:01;6.45;;;4.85;;
55776;SDS011;54079;44.540;18.784;2024-03-22T03:15:28;6.47;;;4.32;;
55776;SDS011;54079;44.540;18.784;2024-03-22T03:17:54;7.88;;;5.20;;
55776;SDS011;54079;44.540;18.784;2024-03-22T03:20:20;7.30;;;5.00;;
55776;SDS011;54079;44.540;18.784;2024-03-22T03:22:46;6.03;;;4.53;;
55776;SDS011;54079;44.540;18.784;2024-03-22T03:25:12;5.20;;;3.92;;
55776;SDS011;54079;44.540;18.784;2024-03-22T03:27:38;4.47;;;3.08;;
55776;SDS011;54079;44.540;18.784;2024-03-22T03:30:04;5.97;;;3.53;;
55776;SDS011;54079;44.540;18.784;2024-03-22T03:32:31;8.27;;;5.60;;
55776;SDS011;54079;44.540;18.784;2024-03-22T03:34:57;6.75;;;4.43;;
55776;SDS011;54079;44.540;18.784;2024-03-22T03:37:23;7.82;;;5.38;;
55776;SDS011;54079;44.540;18.784;2024-03-22T03:39:49;7.18;;;5.00;;
55776;SDS011;54079;44.540;18.784;2024-03-22T03:42:15;8.15;;;5.80;;
55776;SDS011;54079;44.540;18.784;2024-03-22T03:44:41;6.10;;;4.22;;
55776;SDS011;54079;44.540;18.784;2024-03-22T03:47:07;8.57;;;5.35;;
55776;SDS011;54079;44.540;18.784;2024-03-22T03:49:33;5.45;;;4.22;;
55776;SDS011;54079;44.540;18.784;2024-03-22T03:51:59;8.82;;;6.00;;
55776;SDS011;54079;44.540;18.784;2024-03-22T03:54:25;8.10;;;5.53;;
55776;SDS011;54079;44.540;18.784;2024-03-22T03:56:51;7.50;;;4.68;;
55776;SDS011;54079;44.540;18.784;2024-03-22T03:59:17;8.30;;;6.28;;
55776;SDS011;54079;44.540;18.784;2024-03-22T04:01:43;11.48;;;7.15;;
55776;SDS011;54079;44.540;18.784;2024-03-22T04:04:09;9.43;;;5.97;;
55776;SDS011;54079;44.540;18.784;2024-03-22T04:06:35;10.93;;;7.57;;
55776;SDS011;54079;44.540;18.784;2024-03-22T04:09:01;8.52;;;5.30;;
55776;SDS011;54079;44.540;18.784;2024-03-22T04:11:28;7.93;;;5.30;;
55776;SDS011;54079;44.540;18.784;2024-03-22T04:13:54;5.88;;;5.05;;
55776;SDS011;54079;44.540;18.784;2024-03-22T04:16:20;12.65;;;8.55;;
55776;SDS011;54079;44.540;18.784;2024-03-22T04:18:46;18.13;;;8.88;;
55776;SDS011;54079;44.540;18.784;2024-03-22T04:21:12;12.95;;;8.82;;
55776;SDS011;54079;44.540;18.784;2024-03-22T04:23:38;15.20;;;10.20;;
55776;SDS011;54079;44.540;18.784;2024-03-22T04:26:04;12.07;;;7.72;;
55776;SDS011;54079;44.540;18.784;2024-03-22T04:28:30;10.93;;;8.05;;
55776;SDS011;54079;44.540;18.784;2024-03-22T04:30:56;11.30;;;7.95;;
55776;SDS011;54079;44.540;18.784;2024-03-22T04:33:25;11.15;;;7.75;;
55776;SDS011;54079;44.540;18.784;2024-03-22T04:35:53;9.02;;;5.97;;
55776;SDS011;54079;44.540;18.784;2024-03-22T04:38:19;9.95;;;7.15;;
55776;SDS011;54079;44.540;18.784;2024-03-22T04:40:45;11.45;;;7.85;;
55776;SDS011;54079;44.540;18.784;2024-03-22T04:43:11;13.95;;;9.55;;
55776;SDS011;54079;44.540;18.784;2024-03-22T04:45:37;12.82;;;8.50;;
55776;SDS011;54079;44.540;18.784;2024-03-22T04:48:04;8.27;;;5.78;;
55776;SDS011;54079;44.540;18.784;2024-03-22T04:50:30;19.70;;;12.75;;
55776;SDS011;54079;44.540;18.784;2024-03-22T04:52:56;10.65;;;7.38;;
55776;SDS011;54079;44.540;18.784;2024-03-22T04:55:22;10.23;;;6.95;;
55776;SDS011;54079;44.540;18.784;2024-03-22T04:57:49;12.35;;;8.18;;
55776;SDS011;54079;44.540;18.784;2024-03-22T05:00:16;11.55;;;8.65;;
55776;SDS011;54079;44.540;18.784;2024-03-22T05:02:42;12.20;;;9.10;;
55776;SDS011;54079;44.540;18.784;2024-03-22T05:05:08;17.85;;;11.68;;
55776;SDS011;54079;44.540;18.784;2024-03-22T05:07:35;12.77;;;8.85;;
55776;SDS011;54079;44.540;18.784;2024-03-22T05:10:01;12.20;;;7.43;;
55776;SDS011;54079;44.540;18.784;2024-03-22T05:12:28;17.55;;;11.65;;
55776;SDS011;54079;44.540;18.784;2024-03-22T05:14:54;16.70;;;11.93;;
55776;SDS011;54079;44.540;18.784;2024-03-22T05:17:20;15.85;;;11.48;;
55776;SDS011;54079;44.540;18.784;2024-03-22T05:19:47;18.75;;;13.32;;
55776;SDS011;54079;44.540;18.784;2024-03-22T05:22:12;22.20;;;14.40;;
55776;SDS011;54079;44.540;18.784;2024-03-22T05:24:39;16.45;;;11.88;;
55776;SDS011;54079;44.540;18.784;2024-03-22T05:27:05;23.10;;;16.17;;
55776;SDS011;54079;44.540;18.784;2024-03-22T05:29:31;16.75;;;11.82;;
55776;SDS011;54079;44.540;18.784;2024-03-22T05:31:57;13.55;;;8.68;;
55776;SDS011;54079;44.540;18.784;2024-03-22T05:34:22;10.70;;;7.47;;
55776;SDS011;54079;44.540;18.784;2024-03-22T05:36:49;10.88;;;8.70;;
55776;SDS011;54079;44.540;18.784;2024-03-22T05:39:15;22.25;;;13.80;;
55776;SDS011;54079;44.540;18.784;2024-03-22T05:41:41;25.33;;;18.15;;
55776;SDS011;54079;44.540;18.784;2024-03-22T05:44:07;25.63;;;15.63;;
55776;SDS011;54079;44.540;18.784;2024-03-22T05:46:33;16.27;;;11.00;;
55776;SDS011;54079;44.540;18.784;2024-03-22T05:49:00;16.13;;;11.93;;
55776;SDS011;54079;44.540;18.784;2024-03-22T05:51:26;21.02;;;12.88;;
55776;SDS011;54079;44.540;18.784;2024-03-22T05:53:52;15.82;;;10.48;;
55776;SDS011;54079;44.540;18.784;2024-03-22T05:56:18;16.25;;;11.88;;
55776;SDS011;54079;44.540;18.784;2024-03-22T05:58:44;13.38;;;8.95;;
55776;SDS011;54079;44.540;18.784;2024-03-22T06:01:10;15.13;;;11.90;;
55776;SDS011;54079;44.540;18.784;2024-03-22T06:03:36;12.80;;;9.05;;
55776;SDS011;54079;44.540;18.784;2024-03-22T06:06:02;20.13;;;12.98;;
55776;SDS011;54079;44.540;18.784;2024-03-22T06:08:28;17.05;;;12.90;;
55776;SDS011;54079;44.540;18.784;2024-03-22T06:10:56;18.05;;;11.95;;
55776;SDS011;54079;44.540;18.784;2024-03-22T06:13:22;16.08;;;11.38;;
55776;SDS011;54079;44.540;18.784;2024-03-22T06:15:49;19.90;;;14.13;;
55776;SDS011;54079;44.540;18.784;2024-03-22T06:18:15;19.30;;;13.90;;
55776;SDS011;54079;44.540;18.784;2024-03-22T06:20:41;20.58;;;15.48;;
55776;SDS011;54079;44.540;18.784;2024-03-22T06:23:07;25.30;;;19.38;;
55776;SDS011;54079;44.540;18.784;2024-03-22T06:25:34;28.50;;;20.85;;
55776;SDS011;54079;44.540;18.784;2024-03-22T06:28:00;35.92;;;24.13;;
55776;SDS011;54079;44.540;18.784;2024-03-22T06:30:26;28.33;;;20.25;;
55776;SDS011;54079;44.540;18.784;2024-03-22T06:32:55;38.00;;;27.40;;
55776;SDS011;54079;44.540;18.784;2024-03-22T06:35:21;30.75;;;22.17;;
55776;SDS011;54079;44.540;18.784;2024-03-22T06:37:47;33.20;;;24.25;;
55776;SDS011;54079;44.540;18.784;2024-03-22T06:40:18;36.00;;;25.40;;
55776;SDS011;54079;44.540;18.784;2024-03-22T06:42:44;39.40;;;28.73;;
55776;SDS011;54079;44.540;18.784;2024-03-22T06:45:10;33.17;;;24.80;;
55776;SDS011;54079;44.540;18.784;2024-03-22T06:47:36;43.85;;;31.10;;
55776;SDS011;54079;44.540;18.784;2024-03-22T06:50:02;33.08;;;26.63;;
55776;SDS011;54079;44.540;18.784;2024-03-22T06:52:28;37.95;;;27.52;;
55776;SDS011;54079;44.540;18.784;2024-03-22T06:54:54;29.38;;;21.55;;
55776;SDS011;54079;44.540;18.784;2024-03-22T06:57:20;33.25;;;25.75;;
55776;SDS011;54079;44.540;18.784;2024-03-22T06:59:46;31.33;;;21.90;;
55776;SDS011;54079;44.540;18.784;2024-03-22T07:02:12;34.88;;;25.98;;
55776;SDS011;54079;44.540;18.784;2024-03-22T07:04:39;31.17;;;22.85;;
55776;SDS011;54079;44.540;18.784;2024-03-22T07:07:05;35.25;;;26.80;;
55776;SDS011;54079;44.540;18.784;2024-03-22T07:09:34;30.42;;;24.27;;
55776;SDS011;54079;44.540;18.784;2024-03-22T07:12:01;41.95;;;30.20;;
55776;SDS011;54079;44.540;18.784;2024-03-22T07:14:27;33.30;;;26.50;;
55776;SDS011;54079;44.540;18.784;2024-03-22T07:16:53;31.45;;;24.85;;
55776;SDS011;54079;44.540;18.784;2024-03-22T07:19:19;29.55;;;22.33;;
55776;SDS011;54079;44.540;18.784;2024-03-22T07:21:48;33.38;;;25.80;;
55776;SDS011;54079;44.540;18.784;2024-03-22T07:24:14;30.70;;;25.77;;
55776;SDS011;54079;44.540;18.784;2024-03-22T07:26:40;26.70;;;22.85;;
55776;SDS011;54079;44.540;18.784;2024-03-22T07:29:06;24.23;;;21.00;;
55776;SDS011;54079;44.540;18.784;2024-03-22T07:31:32;25.05;;;20.75;;
55776;SDS011;54079;44.540;18.784;2024-03-22T07:33:58;23.00;;;20.50;;
55776;SDS011;54079;44.540;18.784;2024-03-22T07:36:24;26.05;;;22.20;;
55776;SDS011;54079;44.540;18.784;2024-03-22T07:38:52;26.08;;;23.33;;
55776;SDS011;54079;44.540;18.784;2024-03-22T07:41:18;24.73;;;21.95;;
55776;SDS011;54079;44.540;18.784;2024-03-22T07:43:44;24.08;;;21.45;;
55776;SDS011;54079;44.540;18.784;2024-03-22T07:46:10;22.38;;;19.98;;
55776;SDS011;54079;44.540;18.784;2024-03-22T07:48:36;28.58;;;25.48;;
55776;SDS011;54079;44.540;18.784;2024-03-22T07:51:02;22.20;;;19.33;;
55776;SDS011;54079;44.540;18.784;2024-03-22T07:53:28;23.08;;;20.67;;
55776;SDS011;54079;44.540;18.784;2024-03-22T07:55:54;22.92;;;20.67;;
55776;SDS011;54079;44.540;18.784;2024-03-22T07:58:20;23.58;;;21.27;;
55776;SDS011;54079;44.540;18.784;2024-03-22T08:00:46;21.55;;;19.42;;
55776;SDS011;54079;44.540;18.784;2024-03-22T08:03:15;19.92;;;17.77;;
55776;SDS011;54079;44.540;18.784;2024-03-22T08:05:41;18.52;;;16.73;;
55776;SDS011;54079;44.540;18.784;2024-03-22T08:08:08;20.23;;;18.23;;
55776;SDS011;54079;44.540;18.784;2024-03-22T08:10:34;19.35;;;17.58;;
55776;SDS011;54079;44.540;18.784;2024-03-22T08:13:00;21.08;;;19.02;;
55776;SDS011;54079;44.540;18.784;2024-03-22T08:15:26;19.23;;;17.33;;
55776;SDS011;54079;44.540;18.784;2024-03-22T08:17:52;21.15;;;19.13;;
55776;SDS011;54079;44.540;18.784;2024-03-22T08:20:21;21.48;;;19.33;;
55776;SDS011;54079;44.540;18.784;2024-03-22T08:22:48;20.17;;;18.13;;
55776;SDS011;54079;44.540;18.784;2024-03-22T08:25:14;19.63;;;17.77;;
55776;SDS011;54079;44.540;18.784;2024-03-22T08:27:43;24.35;;;21.95;;
55776;SDS011;54079;44.540;18.784;2024-03-22T08:30:11;26.00;;;23.60;;
55776;SDS011;54079;44.540;18.784;2024-03-22T08:32:37;27.48;;;24.70;;
55776;SDS011;54079;44.540;18.784;2024-03-22T08:35:03;19.85;;;17.92;;
55776;SDS011;54079;44.540;18.784;2024-03-22T08:37:30;29.30;;;26.27;;
55776;SDS011;54079;44.540;18.784;2024-03-22T08:39:56;26.38;;;23.75;;
55776;SDS011;54079;44.540;18.784;2024-03-22T08:42:22;27.25;;;24.50;;
55776;SDS011;54079;44.540;18.784;2024-03-22T08:44:48;27.30;;;24.60;;
55776;SDS011;54079;44.540;18.784;2024-03-22T08:47:14;32.25;;;29.02;;
55776;SDS011;54079;44.540;18.784;2024-03-22T08:49:40;22.58;;;20.30;;
55776;SDS011;54079;44.540;18.784;2024-03-22T08:52:08;20.95;;;18.85;;
55776;SDS011;54079;44.540;18.784;2024-03-22T08:54:34;21.88;;;19.67;;
55776;SDS011;54079;44.540;18.784;2024-03-22T08:57:00;29.85;;;26.95;;
55776;SDS011;54079;44.540;18.784;2024-03-22T08:59:26;24.65;;;22.15;;
55776;SDS011;54079;44.540;18.784;2024-03-22T09:01:53;20.35;;;18.35;;
55776;SDS011;54079;44.540;18.784;2024-03-22T09:04:19;39.65;;;35.72;;
55776;SDS011;54079;44.540;18.784;2024-03-22T09:06:45;39.95;;;35.63;;
55776;SDS011;54079;44.540;18.784;2024-03-22T09:09:11;34.75;;;31.33;;
55776;SDS011;54079;44.540;18.784;2024-03-22T09:11:38;23.50;;;21.00;;
55776;SDS011;54079;44.540;18.784;2024-03-22T09:14:04;19.60;;;17.48;;
55776;SDS011;54079;44.540;18.784;2024-03-22T09:16:30;25.90;;;23.20;;
55776;SDS011;54079;44.540;18.784;2024-03-22T09:18:56;20.95;;;18.80;;
55776;SDS011;54079;44.540;18.784;2024-03-22T09:21:23;18.85;;;16.83;;
55776;SDS011;54079;44.540;18.784;2024-03-22T09:23:49;31.42;;;28.05;;
55776;SDS011;54079;44.540;18.784;2024-03-22T09:26:16;18.98;;;16.73;;
55776;SDS011;54079;44.540;18.784;2024-03-22T09:28:46;19.08;;;16.15;;
55776;SDS011;54079;44.540;18.784;2024-03-22T09:31:12;23.88;;;19.83;;
55776;SDS011;54079;44.540;18.784;2024-03-22T09:33:38;18.17;;;15.25;;
55776;SDS011;54079;44.540;18.784;2024-03-22T09:36:04;34.33;;;28.73;;
55776;SDS011;54079;44.540;18.784;2024-03-22T09:38:30;34.35;;;29.33;;
55776;SDS011;54079;44.540;18.784;2024-03-22T09:40:56;34.08;;;27.00;;
55776;SDS011;54079;44.540;18.784;2024-03-22T09:43:22;38.85;;;31.20;;
55776;SDS011;54079;44.540;18.784;2024-03-22T09:45:51;61.40;;;50.58;;
55776;SDS011;54079;44.540;18.784;2024-03-22T09:48:19;24.60;;;20.77;;
55776;SDS011;54079;44.540;18.784;2024-03-22T09:50:46;21.73;;;18.70;;
55776;SDS011;54079;44.540;18.784;2024-03-22T09:53:18;18.35;;;14.82;;
55776;SDS011;54079;44.540;18.784;2024-03-22T09:58:15;20.17;;;16.13;;
55776;SDS011;54079;44.540;18.784;2024-03-22T10:00:44;15.15;;;12.95;;
55776;SDS011;54079;44.540;18.784;2024-03-22T10:03:10;14.35;;;12.65;;
55776;SDS011;54079;44.540;18.784;2024-03-22T10:05:37;16.10;;;13.45;;
55776;SDS011;54079;44.540;18.784;2024-03-22T10:08:03;25.08;;;21.70;;
55776;SDS011;54079;44.540;18.784;2024-03-22T10:10:32;19.05;;;16.55;;
55776;SDS011;54079;44.540;18.784;2024-03-22T10:13:02;18.77;;;16.55;;
55776;SDS011;54079;44.540;18.784;2024-03-22T10:15:31;17.83;;;14.27;;
55776;SDS011;54079;44.540;18.784;2024-03-22T10:17:57;24.48;;;19.02;;
55776;SDS011;54079;44.540;18.784;2024-03-22T10:20:24;18.60;;;16.33;;
55776;SDS011;54079;44.540;18.784;2024-03-22T10:22:57;19.38;;;16.25;;
55776;SDS011;54079;44.540;18.784;2024-03-22T10:25:25;20.77;;;17.33;;
55776;SDS011;54079;44.540;18.784;2024-03-22T10:27:55;22.50;;;19.17;;
55776;SDS011;54079;44.540;18.784;2024-03-22T10:30:22;23.05;;;20.58;;
55776;SDS011;54079;44.540;18.784;2024-03-22T10:32:49;26.00;;;20.88;;
55776;SDS011;54079;44.540;18.784;2024-03-22T10:35:16;22.35;;;19.02;;
55776;SDS011;54079;44.540;18.784;2024-03-22T10:37:42;20.30;;;17.98;;
55776;SDS011;54079;44.540;18.784;2024-03-22T10:40:09;16.40;;;13.98;;
55776;SDS011;54079;44.540;18.784;2024-03-22T10:42:40;14.77;;;13.13;;
55776;SDS011;54079;44.540;18.784;2024-03-22T10:45:08;20.48;;;18.15;;
55776;SDS011;54079;44.540;18.784;2024-03-22T10:47:35;17.33;;;14.60;;
55776;SDS011;54079;44.540;18.784;2024-03-22T10:50:08;18.33;;;15.98;;
55776;SDS011;54079;44.540;18.784;2024-03-22T10:58:17;19.35;;;16.55;;
55776;SDS011;54079;44.540;18.784;2024-03-22T11:00:46;17.52;;;14.52;;
55776;SDS011;54079;44.540;18.784;2024-03-22T11:03:12;22.20;;;16.40;;
55776;SDS011;54079;44.540;18.784;2024-03-22T11:05:47;17.42;;;13.27;;
55776;SDS011;54079;44.540;18.784;2024-03-22T11:08:23;13.43;;;11.93;;
55776;SDS011;54079;44.540;18.784;2024-03-22T11:10:51;13.40;;;10.75;;
55776;SDS011;54079;44.540;18.784;2024-03-22T11:13:17;14.52;;;12.02;;
55776;SDS011;54079;44.540;18.784;2024-03-22T11:15:44;13.10;;;11.60;;
55776;SDS011;54079;44.540;18.784;2024-03-22T11:18:12;17.63;;;15.18;;
55776;SDS011;54079;44.540;18.784;2024-03-22T11:20:38;12.68;;;11.40;;
55776;SDS011;54079;44.540;18.784;2024-03-22T11:23:04;14.48;;;12.60;;
55776;SDS011;54079;44.540;18.784;2024-03-22T11:25:34;15.82;;;13.80;;
55776;SDS011;54079;44.540;18.784;2024-03-22T11:28:00;19.83;;;14.73;;
55776;SDS011;54079;44.540;18.784;2024-03-22T11:30:30;12.45;;;10.30;;
55776;SDS011;54079;44.540;18.784;2024-03-22T11:33:02;7.78;;;6.18;;
55776;SDS011;54079;44.540;18.784;2024-03-22T11:35:28;8.77;;;6.25;;
55776;SDS011;54079;44.540;18.784;2024-03-22T11:37:55;7.57;;;6.05;;
55776;SDS011;54079;44.540;18.784;2024-03-22T11:40:25;7.43;;;6.28;;
55776;SDS011;54079;44.540;18.784;2024-03-22T11:42:52;11.15;;;8.85;;
55776;SDS011;54079;44.540;18.784;2024-03-22T11:45:19;8.85;;;7.80;;
55776;SDS011;54079;44.540;18.784;2024-03-22T11:47:46;7.95;;;5.80;;
55776;SDS011;54079;44.540;18.784;2024-03-22T11:50:12;10.05;;;8.27;;
55776;SDS011;54079;44.540;18.784;2024-03-22T11:52:43;17.35;;;13.20;;
55776;SDS011;54079;44.540;18.784;2024-03-22T11:55:12;7.40;;;6.32;;
55776;SDS011;54079;44.540;18.784;2024-03-22T11:57:39;16.38;;;12.77;;
55776;SDS011;54079;44.540;18.784;2024-03-22T12:00:06;15.23;;;10.65;;
55776;SDS011;54079;44.540;18.784;2024-03-22T12:02:38;15.82;;;12.63;;
55776;SDS011;54079;44.540;18.784;2024-03-22T12:05:04;11.63;;;8.35;;
55776;SDS011;54079;44.540;18.784;2024-03-22T12:07:31;7.68;;;6.03;;
55776;SDS011;54079;44.540;18.784;2024-03-22T12:09:58;9.20;;;7.60;;
55776;SDS011;54079;44.540;18.784;2024-03-22T12:12:24;16.60;;;13.60;;
55776;SDS011;54079;44.540;18.784;2024-03-22T12:14:50;8.13;;;6.72;;
55776;SDS011;54079;44.540;18.784;2024-03-22T12:17:17;10.48;;;7.97;;
55776;SDS011;54079;44.540;18.784;2024-03-22T12:19:43;6.57;;;5.03;;
55776;SDS011;54079;44.540;18.784;2024-03-22T12:22:09;7.65;;;6.25;;
55776;SDS011;54079;44.540;18.784;2024-03-22T12:24:35;8.90;;;5.95;;
55776;SDS011;54079;44.540;18.784;2024-03-22T12:27:02;10.07;;;8.00;;
55776;SDS011;54079;44.540;18.784;2024-03-22T12:29:28;17.42;;;13.95;;
55776;SDS011;54079;44.540;18.784;2024-03-22T12:31:57;9.88;;;8.80;;
55776;SDS011;54079;44.540;18.784;2024-03-22T12:34:23;9.98;;;8.95;;
55776;SDS011;54079;44.540;18.784;2024-03-22T12:36:48;6.75;;;4.95;;
55776;SDS011;54079;44.540;18.784;2024-03-22T12:39:14;6.53;;;5.75;;
55776;SDS011;54079;44.540;18.784;2024-03-22T12:41:41;6.38;;;5.65;;
55776;SDS011;54079;44.540;18.784;2024-03-22T12:44:07;5.70;;;4.10;;
55776;SDS011;54079;44.540;18.784;2024-03-22T12:46:33;5.15;;;4.00;;
55776;SDS011;54079;44.540;18.784;2024-03-22T12:48:59;5.55;;;4.30;;
55776;SDS011;54079;44.540;18.784;2024-03-22T12:51:25;6.03;;;4.35;;
55776;SDS011;54079;44.540;18.784;2024-03-22T12:53:51;4.32;;;3.35;;
55776;SDS011;54079;44.540;18.784;2024-03-22T12:56:17;6.97;;;6.25;;
55776;SDS011;54079;44.540;18.784;2024-03-22T12:58:43;8.32;;;6.75;;
55776;SDS011;54079;44.540;18.784;2024-03-22T13:01:09;7.72;;;6.85;;
55776;SDS011;54079;44.540;18.784;2024-03-22T13:03:38;6.45;;;5.82;;
55776;SDS011;54079;44.540;18.784;2024-03-22T13:06:04;8.50;;;7.25;;
55776;SDS011;54079;44.540;18.784;2024-03-22T13:08:33;8.40;;;7.18;;
55776;SDS011;54079;44.540;18.784;2024-03-22T13:10:59;10.02;;;7.10;;
55776;SDS011;54079;44.540;18.784;2024-03-22T13:13:25;7.18;;;6.47;;
55776;SDS011;54079;44.540;18.784;2024-03-22T13:15:51;7.90;;;6.95;;
55776;SDS011;54079;44.540;18.784;2024-03-22T13:18:18;13.93;;;10.75;;
55776;SDS011;54079;44.540;18.784;2024-03-22T13:20:46;5.68;;;5.07;;
55776;SDS011;54079;44.540;18.784;2024-03-22T13:23:12;4.65;;;4.18;;
55776;SDS011;54079;44.540;18.784;2024-03-22T13:25:38;5.30;;;4.53;;
55776;SDS011;54079;44.540;18.784;2024-03-22T13:28:04;5.38;;;4.50;;
55776;SDS011;54079;44.540;18.784;2024-03-22T13:30:30;9.40;;;7.68;;
55776;SDS011;54079;44.540;18.784;2024-03-22T13:32:57;9.93;;;8.27;;
55776;SDS011;54079;44.540;18.784;2024-03-22T13:35:24;6.18;;;5.40;;
55776;SDS011;54079;44.540;18.784;2024-03-22T13:37:50;8.00;;;4.97;;
55776;SDS011;54079;44.540;18.784;2024-03-22T13:40:16;7.43;;;6.40;;
55776;SDS011;54079;44.540;18.784;2024-03-22T13:42:42;7.22;;;4.80;;
55776;SDS011;54079;44.540;18.784;2024-03-22T13:45:08;8.82;;;7.05;;
55776;SDS011;54079;44.540;18.784;2024-03-22T13:47:34;9.65;;;8.63;;
55776;SDS011;54079;44.540;18.784;2024-03-22T13:50:03;8.40;;;6.50;;
55776;SDS011;54079;44.540;18.784;2024-03-22T13:52:31;8.88;;;7.90;;
55776;SDS011;54079;44.540;18.784;2024-03-22T13:54:57;8.70;;;7.43;;
55776;SDS011;54079;44.540;18.784;2024-03-22T13:57:25;10.77;;;7.95;;
55776;SDS011;54079;44.540;18.784;2024-03-22T13:59:51;11.20;;;8.18;;
55776;SDS011;54079;44.540;18.784;2024-03-22T14:02:18;16.65;;;13.45;;
55776;SDS011;54079;44.540;18.784;2024-03-22T14:04:45;13.45;;;10.90;;
55776;SDS011;54079;44.540;18.784;2024-03-22T14:07:11;10.57;;;8.27;;
55776;SDS011;54079;44.540;18.784;2024-03-22T14:09:37;12.43;;;10.32;;
55776;SDS011;54079;44.540;18.784;2024-03-22T14:12:04;11.27;;;9.85;;
55776;SDS011;54079;44.540;18.784;2024-03-22T14:14:31;8.30;;;6.05;;
55776;SDS011;54079;44.540;18.784;2024-03-22T14:16:57;9.50;;;7.35;;
55776;SDS011;54079;44.540;18.784;2024-03-22T14:19:23;7.25;;;6.43;;
55776;SDS011;54079;44.540;18.784;2024-03-22T14:21:49;7.15;;;6.05;;
55776;SDS011;54079;44.540;18.784;2024-03-22T14:24:15;9.60;;;7.07;;